Airfield :
LOGIN :

Register | Disclaimer

   EN    FR    IT 

 










Legend :    VFR   Marginal VFR   IFR   Intensive IFR   Very Intensive IFR
Visi :
Ceiling :
>= 8 km
>= 3000ft
5 to 8 km
1000 to 3000 ft
1500m to 5 km
500 to 1000 ft
800 to 1500m
200 to 500 ft
< 800m
< 200 ft
Symbols :   Thunderstorms  Fog  Heavy snow  Heavy precipitations  Wind > 20 kt
SIGMETs :     Misc.  Thunderstorms  Icing  Turbulence  Mountain Waves  Volcanic Ashes






- Airport Elevation : 604 ft
- IATA code : LCJ


EPLL - Lodz

CURRENT METAR :
  • 232030Z 28011KT 6000 BKN004 06/05 Q0995

EXPIRED METARs :
  • 232000Z VRB03KT 3600 -RA BR BKN005 05/05 Q0995
  • 231930Z 06005KT 360V110 2400 -RA BR BKN005 05/04 Q0995
  • 231900Z 06006KT 040V180 2200 -RA BR BKN005 05/05 Q0996
  • 231830Z 08004KT 2700 -RA BR BKN004 04/04 Q0996
  • 231800Z 09003KT 060V130 3100 -RA BR BKN005 04/04 Q0998

TAF TAF EPLL
Valid from the 23 at 18:00 until the 24 at 18:00 UTC


231730Z 2318/2418 13004KT 6000 -RA BKN006 OVC012
TEMPO 2318/2321 3500 RA BR BKN003
BECMG 2319/2321 29017KT
TEMPO 2321/2406 30023G38KT 3500 SHRA RA BKN006 BKN012CB
PROB40
TEMPO 2321/2406 2500 SHRASN SHSNRA BKN003 BKN009CB
BECMG 2402/2404 BKN015
TEMPO 2406/2414 27018G34KT -SHRA SCT020TCU



MET'MAP, your aeronautical weather chart ! - Copyright ORBIFLY December 2007 - Disclaimer

ORBIFLY MET'MAP TEAM :

Programming & Development : Alexandra Zaïnal
Concept & original design : Baudouin d'Aumeries
Assistance for programming : Marc-Olivier Méhu
Technical & hardware support : Manuel Goepfert

Contact : metmap@orbifly.com




SOURCES & CREDITS :

   NOAA